createdAt,value
2022-11-02T00:01:26.171Z,133.00
2022-11-02T00:03:53.812Z,118.20
2022-11-02T00:06:21.918Z,128.73
2022-11-02T00:08:49.532Z,130.07
2022-11-02T00:11:17.420Z,119.13
2022-11-02T00:13:45.134Z,115.63
2022-11-02T00:16:14.895Z,117.50
2022-11-02T00:18:43.085Z,128.80
2022-11-02T00:21:11.703Z,131.67
2022-11-02T00:23:40.652Z,130.10
2022-11-02T00:26:08.822Z,124.73
2022-11-02T00:28:36.563Z,110.20
2022-11-02T00:31:04.562Z,113.40
2022-11-02T00:33:32.262Z,126.00
2022-11-02T00:36:00.243Z,114.90
2022-11-02T00:38:28.781Z,115.83
2022-11-02T00:40:56.705Z,112.67
2022-11-02T00:43:24.721Z,114.13
2022-11-02T00:45:52.588Z,106.90
2022-11-02T00:48:20.334Z,110.47
2022-11-02T00:50:48.273Z,125.60
2022-11-02T00:53:16.864Z,123.13
2022-11-02T00:55:54.037Z,118.10
2022-11-02T00:58:22.391Z,116.47
2022-11-02T01:00:51.911Z,108.07
2022-11-02T01:03:19.567Z,111.47
2022-11-02T01:05:47.938Z,127.67
2022-11-02T01:08:15.864Z,100.60
2022-11-02T01:10:48.118Z,111.67
2022-11-02T01:13:17.783Z,103.20
2022-11-02T01:15:45.658Z,112.47
2022-11-02T01:18:13.295Z,113.83
2022-11-02T01:20:41.121Z,114.40
2022-11-02T01:23:08.778Z,98.73
2022-11-02T01:25:36.555Z,99.70
2022-11-02T01:28:05.076Z,101.97
2022-11-02T01:30:34.013Z,102.70
2022-11-02T01:33:01.667Z,106.43
2022-11-02T01:35:29.446Z,92.57
2022-11-02T01:37:57.045Z,98.00
2022-11-02T01:40:24.988Z,112.40
2022-11-02T01:42:52.644Z,96.00
2022-11-02T01:45:20.522Z,106.20
2022-11-02T01:47:49.354Z,103.17
2022-11-02T01:50:19.885Z,97.43
2022-11-02T01:52:47.602Z,87.33
2022-11-02T01:55:17.313Z,98.93
2022-11-02T01:57:48.438Z,97.20
2022-11-02T02:00:19.115Z,92.57
2022-11-02T02:02:50.569Z,90.20
2022-11-02T02:05:21.704Z,95.27
2022-11-02T02:07:51.326Z,88.87
2022-11-02T02:10:19.684Z,84.37
2022-11-02T02:12:47.651Z,89.43
2022-11-02T02:15:21.795Z,84.17
2022-11-02T02:18:20.536Z,88.43
2022-11-02T02:21:21.013Z,86.20
2022-11-02T02:24:05.787Z,83.47
2022-11-02T02:26:45.708Z,82.80
2022-11-02T02:29:20.472Z,79.80
2022-11-02T02:31:51.653Z,76.90
2022-11-02T02:34:20.978Z,84.07
2022-11-02T02:37:07.147Z,87.83
2022-11-02T02:39:46.977Z,83.80
2022-11-02T02:42:32.558Z,99.43
2022-11-02T02:45:06.317Z,84.87
2022-11-02T02:47:35.452Z,84.03
2022-11-02T02:50:08.965Z,79.60
2022-11-02T02:52:38.102Z,79.40
2022-11-02T02:55:07.670Z,74.47
2022-11-02T02:57:36.225Z,71.70
2022-11-02T03:00:05.284Z,75.33
2022-11-02T03:02:37.512Z,80.13
2022-11-02T03:05:23.218Z,82.60
2022-11-02T03:07:52.186Z,71.03
2022-11-02T03:10:19.895Z,70.80
2022-11-02T03:12:57.362Z,76.90
2022-11-02T03:15:36.194Z,73.90
2022-11-02T03:18:18.191Z,70.33
2022-11-02T03:20:55.580Z,77.47
2022-11-02T03:23:38.658Z,72.20
2022-11-02T03:26:06.356Z,82.97
2022-11-02T03:28:38.027Z,84.27
2022-11-02T03:31:23.901Z,88.33
2022-11-02T03:34:07.220Z,102.30
2022-11-02T03:36:38.539Z,88.60
2022-11-02T03:39:11.263Z,110.23
2022-11-02T03:41:41.725Z,123.30
2022-11-02T03:44:15.859Z,117.90
2022-11-02T03:46:45.107Z,118.00
2022-11-02T03:49:18.546Z,110.63
2022-11-02T03:51:48.403Z,120.43
2022-11-02T03:54:37.056Z,111.37
2022-11-02T03:57:06.339Z,97.43
2022-11-02T03:59:34.976Z,83.03
2022-11-02T04:02:03.422Z,85.50
2022-11-02T04:04:32.133Z,87.60
2022-11-02T04:07:00.038Z,90.93
2022-11-02T04:09:28.556Z,89.33
2022-11-02T04:12:15.479Z,99.60
2022-11-02T04:14:43.388Z,97.77
2022-11-02T04:17:33.139Z,89.47
2022-11-02T04:20:04.682Z,97.63
2022-11-02T04:22:50.923Z,85.13
2022-11-02T04:25:20.611Z,97.80
2022-11-02T04:28:07.470Z,83.97
2022-11-02T04:30:37.608Z,96.50
2022-11-02T04:33:24.416Z,89.87
2022-11-02T04:36:03.403Z,93.60
2022-11-02T04:38:41.711Z,95.87
2022-11-02T04:41:49.294Z,85.33
2022-11-02T04:44:37.113Z,81.30
2022-11-02T04:47:17.591Z,83.03
2022-11-02T04:49:45.983Z,78.27
2022-11-02T04:52:17.576Z,74.30
2022-11-02T04:54:49.907Z,75.80
2022-11-02T04:57:18.844Z,87.90
2022-11-02T04:59:46.462Z,79.50
2022-11-02T05:02:14.783Z,87.93
2022-11-02T05:04:44.008Z,76.13
2022-11-02T05:07:12.458Z,78.87
2022-11-02T05:09:42.513Z,76.43
2022-11-02T05:12:11.640Z,68.33
2022-11-02T05:14:39.285Z,66.07
2022-11-02T05:17:07.814Z,64.17
2022-11-02T05:19:37.571Z,61.93
2022-11-02T05:22:06.651Z,56.90
2022-11-02T05:24:35.147Z,59.27
2022-11-02T05:27:03.201Z,58.07
2022-11-02T05:29:33.970Z,54.23
2022-11-02T05:32:02.140Z,56.73
2022-11-02T05:34:29.854Z,57.93
2022-11-02T05:36:57.992Z,59.80
2022-11-02T05:39:26.041Z,53.13
2022-11-02T05:41:53.865Z,51.73
2022-11-02T05:44:21.786Z,51.90
2022-11-02T05:46:49.719Z,57.50
2022-11-02T05:49:17.393Z,56.40
2022-11-02T05:51:45.193Z,53.73
2022-11-02T05:54:12.787Z,56.80
2022-11-02T05:56:40.671Z,54.23
2022-11-02T05:59:08.316Z,55.33
2022-11-02T06:01:36.151Z,56.83
2022-11-02T06:04:03.993Z,54.07
2022-11-02T06:06:31.881Z,52.47
2022-11-02T06:09:04.235Z,55.00
2022-11-02T06:11:35.395Z,57.17
2022-11-02T06:14:03.934Z,66.83
2022-11-02T06:16:31.822Z,52.13
2022-11-02T06:18:59.499Z,57.37
2022-11-02T06:21:27.540Z,54.90
2022-11-02T06:23:55.067Z,58.77
2022-11-02T06:26:22.871Z,53.70
2022-11-02T06:28:50.559Z,52.50
2022-11-02T06:31:18.370Z,58.20
2022-11-02T06:33:46.149Z,61.37
2022-11-02T06:36:14.038Z,49.03
2022-11-02T06:38:42.250Z,54.30
2022-11-02T06:41:10.495Z,52.73
2022-11-02T06:43:39.742Z,53.83
2022-11-02T06:46:07.648Z,48.67
2022-11-02T06:48:35.930Z,42.20
2022-11-02T06:51:04.954Z,45.77
2022-11-02T06:53:33.172Z,40.27
2022-11-02T06:56:01.279Z,41.27
2022-11-02T06:58:28.987Z,44.83
2022-11-02T07:01:01.122Z,43.07
2022-11-02T07:03:29.653Z,37.97
2022-11-02T07:05:57.699Z,46.17
2022-11-02T07:08:25.796Z,43.53
2022-11-02T07:10:53.608Z,53.33
2022-11-02T07:13:21.244Z,45.40
2022-11-02T07:15:52.315Z,44.23
2022-11-02T07:18:19.904Z,44.57
2022-11-02T07:20:47.707Z,43.90
2022-11-02T07:23:15.424Z,47.50
2022-11-02T07:25:43.505Z,39.00
2022-11-02T07:28:11.187Z,46.17
2022-11-02T07:30:39.210Z,35.40
2022-11-02T07:33:07.215Z,39.57
2022-11-02T07:35:35.389Z,38.20
2022-11-02T07:38:04.121Z,36.07
2022-11-02T07:40:33.116Z,42.50
2022-11-02T07:43:01.098Z,37.70
2022-11-02T07:45:47.656Z,37.63
2022-11-02T07:48:15.399Z,38.07
2022-11-02T07:50:43.437Z,40.83
2022-11-02T07:53:11.200Z,48.27
2022-11-02T07:55:39.069Z,40.57
2022-11-02T07:58:08.206Z,40.23
2022-11-02T08:00:37.584Z,40.17
2022-11-02T08:03:06.702Z,36.70
2022-11-02T08:05:35.611Z,35.50
2022-11-02T08:08:12.573Z,37.03
2022-11-02T08:10:40.805Z,34.20
2022-11-02T08:13:09.392Z,36.03
2022-11-02T08:15:37.521Z,33.13
2022-11-02T08:18:14.513Z,35.63
2022-11-02T08:20:42.295Z,35.40
2022-11-02T08:23:11.072Z,35.60
2022-11-02T08:25:39.473Z,36.83
2022-11-02T08:28:08.355Z,31.03
2022-11-02T08:30:36.131Z,31.63
2022-11-02T08:33:05.172Z,35.97
2022-11-02T08:35:33.260Z,34.67
2022-11-02T08:38:01.279Z,46.87
2022-11-02T08:40:28.909Z,39.77
2022-11-02T08:42:58.022Z,38.90
2022-11-02T08:45:26.019Z,41.87
2022-11-02T08:47:54.335Z,39.03
2022-11-02T08:50:22.037Z,36.87
2022-11-02T08:52:50.123Z,39.77
2022-11-02T08:55:17.744Z,41.03
2022-11-02T08:57:49.406Z,41.40
2022-11-02T09:00:18.019Z,42.30
2022-11-02T09:02:45.965Z,37.57
2022-11-02T09:05:13.649Z,42.07
2022-11-02T09:07:41.485Z,39.00
2022-11-02T09:10:09.668Z,37.67
2022-11-02T09:12:37.480Z,37.87
2022-11-02T09:15:05.146Z,33.93
2022-11-02T09:17:32.979Z,35.40
2022-11-02T09:20:00.538Z,38.43
2022-11-02T09:22:28.557Z,32.40
2022-11-02T09:24:56.144Z,34.03
2022-11-02T09:27:23.982Z,32.90
2022-11-02T09:29:51.539Z,32.03
2022-11-02T09:32:19.416Z,33.57
2022-11-02T09:34:47.629Z,29.23
2022-11-02T09:37:15.461Z,30.23
2022-11-02T09:39:42.968Z,30.20
2022-11-02T09:42:21.558Z,32.00
2022-11-02T09:45:05.352Z,25.40
2022-11-02T09:48:14.811Z,26.20
2022-11-02T09:50:23.865Z,25.77
2022-11-02T09:52:55.516Z,21.77
2022-11-02T09:55:27.390Z,24.27
2022-11-02T09:57:59.711Z,23.55
2022-11-02T10:00:29.489Z,24.77
2022-11-02T10:03:28.398Z,22.93
2022-11-02T10:06:16.339Z,26.60
2022-11-02T10:08:56.689Z,23.30
2022-11-02T10:11:24.246Z,23.67
2022-11-02T10:14:12.330Z,20.73
2022-11-02T10:16:42.932Z,22.57
2022-11-02T10:19:16.154Z,23.30
2022-11-02T10:21:46.941Z,19.40
2022-11-02T10:24:25.522Z,20.83
2022-11-02T10:26:56.132Z,20.33
2022-11-02T10:29:30.756Z,21.20
2022-11-02T10:31:58.362Z,22.58
2022-11-02T10:34:29.541Z,21.90
2022-11-02T10:37:00.193Z,18.30
2022-11-02T10:39:28.053Z,15.95
2022-11-02T10:42:04.638Z,21.93
2022-11-02T10:44:56.102Z,18.60
2022-11-02T10:47:26.544Z,19.87
2022-11-02T10:50:31.869Z,20.40
2022-11-02T10:53:27.411Z,22.43
2022-11-02T10:55:51.050Z,18.38
2022-11-02T10:58:20.923Z,18.30
2022-11-02T11:00:49.319Z,16.05
2022-11-02T11:03:17.984Z,28.80
2022-11-02T11:05:52.425Z,14.38
2022-11-02T11:08:31.483Z,16.73
2022-11-02T11:11:21.183Z,17.42
2022-11-02T11:19:55.629Z,10.23
2022-11-02T11:22:28.679Z,12.18
2022-11-02T11:25:17.270Z,11.50
2022-11-02T11:27:46.415Z,10.93
2022-11-02T11:30:59.441Z,9.43
2022-11-02T11:33:21.585Z,10.02
2022-11-02T11:35:50.775Z,9.75
2022-11-02T11:38:26.263Z,13.32
2022-11-02T11:40:59.056Z,9.23
2022-11-02T11:43:30.485Z,11.23
2022-11-02T11:46:06.460Z,9.70
2022-11-02T11:48:46.859Z,12.13
2022-11-02T11:51:39.624Z,8.45
2022-11-02T11:54:29.255Z,8.25
2022-11-02T11:57:01.092Z,10.75
2022-11-02T11:59:45.132Z,11.38
2022-11-02T12:02:31.667Z,9.82
2022-11-02T12:05:18.898Z,9.30
2022-11-02T12:08:02.264Z,10.73
2022-11-02T12:11:07.452Z,8.00
2022-11-02T12:13:55.341Z,9.70
2022-11-02T12:16:29.010Z,10.70
2022-11-02T12:19:15.492Z,9.13
2022-11-02T12:22:02.273Z,10.57
2022-11-02T12:25:03.617Z,8.65
2022-11-02T12:27:52.398Z,14.77
2022-11-02T12:30:23.159Z,10.25
2022-11-02T12:32:57.420Z,13.75
2022-11-02T12:35:54.231Z,14.70
2022-11-02T12:38:38.013Z,9.93
2022-11-02T12:41:08.794Z,11.27
2022-11-02T12:43:43.844Z,9.52
2022-11-02T12:46:12.420Z,10.82
2022-11-02T12:48:43.897Z,11.57
2022-11-02T12:51:11.399Z,13.57
2022-11-02T12:53:42.640Z,12.40
2022-11-02T12:56:17.549Z,14.93
2022-11-02T12:58:46.973Z,9.52
2022-11-02T13:01:22.819Z,13.15
2022-11-02T13:03:58.100Z,9.25
2022-11-02T13:06:30.389Z,11.93
2022-11-02T13:09:01.940Z,11.65
2022-11-02T13:11:33.702Z,7.63
2022-11-02T13:14:03.786Z,14.25
2022-11-02T13:16:53.947Z,9.40
2022-11-02T13:19:30.273Z,10.85
2022-11-02T13:21:58.834Z,11.25
2022-11-02T13:24:40.828Z,12.98
2022-11-02T13:27:35.397Z,17.80
2022-11-02T13:30:15.887Z,9.93
2022-11-02T13:33:05.432Z,7.90
2022-11-02T13:35:34.944Z,10.35
2022-11-02T13:38:16.248Z,7.63
2022-11-02T13:40:50.043Z,12.57
2022-11-02T13:43:31.161Z,6.40
2022-11-02T13:46:33.910Z,11.35
2022-11-02T13:49:15.816Z,8.43
2022-11-02T13:51:55.530Z,11.25
2022-11-02T13:54:23.378Z,7.47
2022-11-02T13:56:55.953Z,11.57
2022-11-02T13:59:26.728Z,8.70
2022-11-02T14:01:55.513Z,12.35
2022-11-02T14:04:24.195Z,12.27
2022-11-02T14:06:52.113Z,15.90
2022-11-02T14:09:25.368Z,7.82
2022-11-02T14:12:10.828Z,9.60
2022-11-02T14:14:38.479Z,11.55
2022-11-02T14:17:13.464Z,13.32
2022-11-02T14:19:41.110Z,8.63
2022-11-02T14:22:16.361Z,13.73
2022-11-02T14:24:44.001Z,18.65
2022-11-02T14:27:16.755Z,15.35
2022-11-02T14:29:47.523Z,11.10
2022-11-02T14:32:21.843Z,12.70
2022-11-02T14:35:16.976Z,9.47
2022-11-02T14:37:54.057Z,15.18
2022-11-02T14:41:00.751Z,22.10
2022-11-02T14:44:10.147Z,19.10
2022-11-02T14:46:57.002Z,10.20
2022-11-02T14:49:30.465Z,13.13
2022-11-02T14:52:04.314Z,14.67
2022-11-02T14:54:34.525Z,18.47
2022-11-02T14:57:02.143Z,18.60
2022-11-02T14:59:35.862Z,17.00
2022-11-02T15:02:05.691Z,16.57
2022-11-02T15:04:35.212Z,17.73
2022-11-02T15:07:04.388Z,11.60
2022-11-02T15:09:50.961Z,10.57
2022-11-02T15:12:35.867Z,16.73
2022-11-02T15:15:23.903Z,9.27
2022-11-02T15:17:52.735Z,12.63
2022-11-02T15:20:24.826Z,13.83
2022-11-02T15:22:54.921Z,15.63
2022-11-02T15:25:29.395Z,17.57
2022-11-02T15:27:58.357Z,13.70
2022-11-02T15:30:28.587Z,10.20
2022-11-02T15:33:01.876Z,9.97
2022-11-02T15:35:39.997Z,12.67
2022-11-02T15:38:17.561Z,17.97
2022-11-02T15:40:49.941Z,17.70
2022-11-02T15:43:37.149Z,17.47
2022-11-02T15:46:24.859Z,11.73
2022-11-02T15:49:05.988Z,12.57
2022-11-02T15:51:40.546Z,15.03
2022-11-02T15:54:19.421Z,10.13
2022-11-02T15:57:06.407Z,19.53
2022-11-02T15:59:46.879Z,27.47
2022-11-02T16:02:22.755Z,17.90
2022-11-02T16:04:55.935Z,17.07
2022-11-02T16:07:33.499Z,9.00
2022-11-02T16:10:13.784Z,14.77
2022-11-02T16:12:41.922Z,12.77
2022-11-02T16:15:14.873Z,14.80
2022-11-02T16:17:43.324Z,12.33
2022-11-02T16:20:11.112Z,12.57
2022-11-02T16:22:39.118Z,14.60
2022-11-02T16:25:12.474Z,13.80
2022-11-02T16:27:40.564Z,13.40
2022-11-02T16:30:18.010Z,12.80
2022-11-02T16:32:46.682Z,17.03
2022-11-02T16:35:16.998Z,19.90
2022-11-02T16:37:45.598Z,12.47
2022-11-02T16:40:18.452Z,15.17
2022-11-02T16:42:50.728Z,14.97
2022-11-02T16:45:31.056Z,17.83
2022-11-02T16:47:58.978Z,24.63
2022-11-02T16:50:27.742Z,18.10
2022-11-02T16:52:58.891Z,26.43
2022-11-02T16:55:40.382Z,25.70
2022-11-02T16:58:14.371Z,22.47
2022-11-02T17:01:00.315Z,20.20
2022-11-02T17:03:35.213Z,16.60
2022-11-02T17:06:06.879Z,21.57
2022-11-02T17:08:38.066Z,13.23
2022-11-02T17:11:12.387Z,24.97
2022-11-02T17:13:49.278Z,20.17
2022-11-02T17:16:18.620Z,17.67
2022-11-02T17:18:46.876Z,16.00
2022-11-02T17:21:14.832Z,15.47
2022-11-02T17:23:44.998Z,21.47
2022-11-02T17:26:29.517Z,18.33
2022-11-02T17:29:01.846Z,15.93
2022-11-02T17:31:35.604Z,14.30
2022-11-02T17:34:09.878Z,15.80
2022-11-02T17:36:49.893Z,21.27
2022-11-02T17:39:19.895Z,15.60
2022-11-02T17:42:15.383Z,13.40
2022-11-02T17:44:46.190Z,10.20
2022-11-02T17:47:18.858Z,13.20
2022-11-02T17:49:47.119Z,13.93
2022-11-02T17:52:19.054Z,14.20
2022-11-02T17:54:47.129Z,13.83
2022-11-02T17:57:15.939Z,12.17
2022-11-02T17:59:43.688Z,19.43
2022-11-02T18:02:16.002Z,13.83
2022-11-02T18:04:44.937Z,14.67
2022-11-02T18:07:14.087Z,22.50
2022-11-02T18:09:42.187Z,19.10
2022-11-02T18:12:13.262Z,10.90
2022-11-02T18:14:41.450Z,12.47
2022-11-02T18:17:09.743Z,14.27
2022-11-02T18:19:37.673Z,19.00
2022-11-02T18:22:05.751Z,18.87
2022-11-02T18:24:33.733Z,16.27
2022-11-02T18:27:03.011Z,18.17
2022-11-02T18:29:31.437Z,20.57
2022-11-02T18:31:59.804Z,14.57
2022-11-02T18:34:27.706Z,17.30
2022-11-02T18:36:56.796Z,15.60
2022-11-02T18:39:25.177Z,11.70
2022-11-02T18:41:54.335Z,22.53
2022-11-02T18:44:23.456Z,18.30
2022-11-02T18:46:51.703Z,12.80
2022-11-02T18:49:20.512Z,18.73
2022-11-02T18:51:49.521Z,19.73
2022-11-02T18:54:18.241Z,19.70
2022-11-02T18:56:46.351Z,18.47
2022-11-02T18:59:14.115Z,17.47
2022-11-02T19:01:42.481Z,18.70
2022-11-02T19:04:16.995Z,15.93
2022-11-02T19:07:04.373Z,13.40
2022-11-02T19:09:33.712Z,44.50
2022-11-02T19:12:02.295Z,16.40
2022-11-02T19:14:38.788Z,13.60
2022-11-02T19:17:07.547Z,14.00
2022-11-02T19:19:35.906Z,16.73
2022-11-02T19:22:04.331Z,28.47
2022-11-02T19:24:32.244Z,13.37
2022-11-02T19:27:00.372Z,20.27
2022-11-02T19:29:28.098Z,15.10
2022-11-02T19:31:56.503Z,21.83
2022-11-02T19:34:24.239Z,26.73
2022-11-02T19:36:52.428Z,14.90
2022-11-02T19:39:20.425Z,16.63
2022-11-02T19:41:52.040Z,19.93
2022-11-02T19:44:19.674Z,32.43
2022-11-02T19:46:48.472Z,25.00
2022-11-02T19:49:16.135Z,28.70
2022-11-02T19:51:44.352Z,23.90
2022-11-02T19:54:12.763Z,17.27
2022-11-02T19:56:41.206Z,27.07
2022-11-02T19:59:08.854Z,20.83
2022-11-02T20:01:38.997Z,27.80
2022-11-02T20:04:07.166Z,21.10
2022-11-02T20:06:35.340Z,20.37
2022-11-02T20:09:04.633Z,18.40
2022-11-02T20:11:32.927Z,16.77
2022-11-02T20:14:02.636Z,17.70
2022-11-02T20:16:30.730Z,14.03
2022-11-02T20:18:59.808Z,23.10
2022-11-02T20:21:36.920Z,16.93
2022-11-02T20:24:11.271Z,22.90
2022-11-02T20:26:41.473Z,17.10
2022-11-02T20:29:12.445Z,18.87
2022-11-02T20:31:44.477Z,19.23
2022-11-02T20:34:13.976Z,14.47
2022-11-02T20:36:42.404Z,18.60
2022-11-02T20:39:11.158Z,16.40
2022-11-02T20:41:39.217Z,11.07
2022-11-02T20:44:07.380Z,16.20
2022-11-02T20:46:39.062Z,13.77
2022-11-02T20:49:20.665Z,12.63
2022-11-02T20:51:57.063Z,13.10
2022-11-02T20:54:25.324Z,8.93
2022-11-02T20:56:53.595Z,12.27
2022-11-02T20:59:21.102Z,10.43
2022-11-02T21:01:49.063Z,9.17
2022-11-02T21:04:20.742Z,11.07
2022-11-02T21:06:50.315Z,10.97
2022-11-02T21:09:19.025Z,10.90
2022-11-02T21:12:06.089Z,11.50
2022-11-02T21:14:33.985Z,12.00
2022-11-02T21:17:03.079Z,11.80
2022-11-02T21:19:31.146Z,9.33
2022-11-02T21:22:00.448Z,15.63
2022-11-02T21:24:29.190Z,12.80
2022-11-02T21:26:57.533Z,14.03
2022-11-02T21:29:25.778Z,12.33
2022-11-02T21:31:54.008Z,8.13
2022-11-02T21:34:21.860Z,12.23
2022-11-02T21:36:50.005Z,9.73
2022-11-02T21:39:17.774Z,14.20
2022-11-02T21:41:45.803Z,13.37
2022-11-02T21:44:13.564Z,15.30
2022-11-02T21:46:41.831Z,17.53
2022-11-02T21:49:09.629Z,7.83
2022-11-02T21:51:38.639Z,8.03
2022-11-02T21:54:06.342Z,9.13
2022-11-02T21:56:36.113Z,8.30
2022-11-02T21:59:05.522Z,7.83
2022-11-02T22:01:48.025Z,7.60
2022-11-02T22:04:16.207Z,12.73
2022-11-02T22:06:44.203Z,10.53
2022-11-02T22:09:12.785Z,10.20
2022-11-02T22:11:41.223Z,12.13
2022-11-02T22:14:09.168Z,7.73
2022-11-02T22:16:37.938Z,9.63
2022-11-02T22:19:10.209Z,8.97
2022-11-02T22:21:43.414Z,10.30
2022-11-02T22:24:11.538Z,10.23
2022-11-02T22:26:39.863Z,6.80
2022-11-02T22:29:07.858Z,15.80
2022-11-02T22:31:40.878Z,21.47
2022-11-02T22:34:10.477Z,21.47
2022-11-02T22:36:39.802Z,10.67
2022-11-02T22:39:08.482Z,12.73
2022-11-02T22:41:41.695Z,16.13
2022-11-02T22:44:14.041Z,25.43
2022-11-02T22:46:43.490Z,20.53
2022-11-02T22:49:12.611Z,15.07
2022-11-02T22:51:42.448Z,5.37
2022-11-02T22:54:13.731Z,9.30
2022-11-02T22:56:41.727Z,10.83
2022-11-02T22:59:09.465Z,5.90
2022-11-02T23:01:38.165Z,5.00
2022-11-02T23:04:06.479Z,9.13
2022-11-02T23:06:35.035Z,10.47
2022-11-02T23:09:03.300Z,8.50
2022-11-02T23:11:33.853Z,10.03
2022-11-02T23:14:01.474Z,8.43
2022-11-02T23:16:41.168Z,8.83
2022-11-02T23:19:31.165Z,4.60
2022-11-02T23:22:24.549Z,10.00
2022-11-02T23:25:13.008Z,7.73
2022-11-02T23:28:12.679Z,7.90
2022-11-02T23:30:59.964Z,9.77
2022-11-02T23:33:36.434Z,8.20
2022-11-02T23:36:11.236Z,6.97
2022-11-02T23:38:57.931Z,8.27
2022-11-02T23:41:26.024Z,8.33
2022-11-02T23:44:11.926Z,6.37
2022-11-02T23:46:45.263Z,8.83
2022-11-02T23:49:13.675Z,4.47
2022-11-02T23:52:00.027Z,11.23
2022-11-02T23:54:46.223Z,9.00
2022-11-02T23:57:14.111Z,4.90
2022-11-02T23:59:41.912Z,6.20
